sensor_id;sensor_type;location;lat;lon;timestamp;P1;durP1;ratioP1;P2;durP2;ratioP2
3543;SDS011;1786;52.870;9.578;2023-06-22T00:00:51;5.73;;;5.23;;
3543;SDS011;1786;52.870;9.578;2023-06-22T00:03:20;8.00;;;4.20;;
3543;SDS011;1786;52.870;9.578;2023-06-22T00:05:48;5.40;;;4.90;;
3543;SDS011;1786;52.870;9.578;2023-06-22T00:08:15;4.57;;;4.27;;
3543;SDS011;1786;52.870;9.578;2023-06-22T00:10:43;7.43;;;4.80;;
3543;SDS011;1786;52.870;9.578;2023-06-22T00:13:11;4.23;;;4.00;;
3543;SDS011;1786;52.870;9.578;2023-06-22T00:15:39;4.97;;;4.40;;
3543;SDS011;1786;52.870;9.578;2023-06-22T00:18:08;5.07;;;4.67;;
3543;SDS011;1786;52.870;9.578;2023-06-22T00:20:36;4.90;;;4.60;;
3543;SDS011;1786;52.870;9.578;2023-06-22T00:23:04;4.67;;;4.27;;
3543;SDS011;1786;52.870;9.578;2023-06-22T00:25:37;4.90;;;4.60;;
3543;SDS011;1786;52.870;9.578;2023-06-22T00:28:06;5.07;;;4.60;;
3543;SDS011;1786;52.870;9.578;2023-06-22T00:30:34;4.87;;;4.57;;
3543;SDS011;1786;52.870;9.578;2023-06-22T00:33:01;5.20;;;4.83;;
3543;SDS011;1786;52.870;9.578;2023-06-22T00:35:28;7.77;;;4.53;;
3543;SDS011;1786;52.870;9.578;2023-06-22T00:37:56;4.93;;;4.63;;
3543;SDS011;1786;52.870;9.578;2023-06-22T00:40:31;4.93;;;4.63;;
3543;SDS011;1786;52.870;9.578;2023-06-22T00:42:59;4.70;;;4.40;;
3543;SDS011;1786;52.870;9.578;2023-06-22T00:45:26;4.93;;;4.60;;
3543;SDS011;1786;52.870;9.578;2023-06-22T00:47:54;5.10;;;4.80;;
3543;SDS011;1786;52.870;9.578;2023-06-22T00:50:27;4.90;;;4.60;;
3543;SDS011;1786;52.870;9.578;2023-06-22T00:53:04;5.20;;;4.73;;
3543;SDS011;1786;52.870;9.578;2023-06-22T00:55:38;4.90;;;4.50;;
3543;SDS011;1786;52.870;9.578;2023-06-22T00:58:10;5.20;;;4.50;;
3543;SDS011;1786;52.870;9.578;2023-06-22T01:00:38;4.93;;;4.63;;
3543;SDS011;1786;52.870;9.578;2023-06-22T01:03:06;5.37;;;5.00;;
3543;SDS011;1786;52.870;9.578;2023-06-22T01:05:36;4.23;;;3.93;;
3543;SDS011;1786;52.870;9.578;2023-06-22T01:11:08;5.17;;;4.77;;
3543;SDS011;1786;52.870;9.578;2023-06-22T01:13:45;4.83;;;4.50;;
3543;SDS011;1786;52.870;9.578;2023-06-22T01:16:26;5.37;;;5.00;;
3543;SDS011;1786;52.870;9.578;2023-06-22T01:18:57;4.40;;;4.10;;
3543;SDS011;1786;52.870;9.578;2023-06-22T01:21:32;4.90;;;4.50;;
3543;SDS011;1786;52.870;9.578;2023-06-22T01:24:18;4.40;;;4.10;;
3543;SDS011;1786;52.870;9.578;2023-06-22T01:29:35;9.00;;;5.03;;
3543;SDS011;1786;52.870;9.578;2023-06-22T01:32:04;5.10;;;4.80;;
3543;SDS011;1786;52.870;9.578;2023-06-22T01:34:35;5.70;;;5.30;;
3543;SDS011;1786;52.870;9.578;2023-06-22T01:37:03;4.93;;;4.13;;
3543;SDS011;1786;52.870;9.578;2023-06-22T01:39:31;5.30;;;4.87;;
3543;SDS011;1786;52.870;9.578;2023-06-22T01:41:59;5.67;;;4.80;;
3543;SDS011;1786;52.870;9.578;2023-06-22T01:44:26;6.23;;;5.00;;
3543;SDS011;1786;52.870;9.578;2023-06-22T01:46:53;4.80;;;4.40;;
3543;SDS011;1786;52.870;9.578;2023-06-22T01:49:20;5.70;;;5.20;;
3543;SDS011;1786;52.870;9.578;2023-06-22T01:51:47;5.50;;;4.80;;
3543;SDS011;1786;52.870;9.578;2023-06-22T01:54:14;5.50;;;5.20;;
3543;SDS011;1786;52.870;9.578;2023-06-22T01:56:40;5.27;;;4.90;;
3543;SDS011;1786;52.870;9.578;2023-06-22T01:59:12;5.70;;;5.30;;
3543;SDS011;1786;52.870;9.578;2023-06-22T02:02:06;5.17;;;4.77;;
3543;SDS011;1786;52.870;9.578;2023-06-22T02:04:46;4.50;;;4.20;;
3543;SDS011;1786;52.870;9.578;2023-06-22T02:07:18;5.77;;;4.80;;
3543;SDS011;1786;52.870;9.578;2023-06-22T02:09:47;5.30;;;4.80;;
3543;SDS011;1786;52.870;9.578;2023-06-22T02:12:18;4.70;;;4.30;;
3543;SDS011;1786;52.870;9.578;2023-06-22T02:14:48;4.77;;;4.37;;
3543;SDS011;1786;52.870;9.578;2023-06-22T02:17:17;5.20;;;4.70;;
3543;SDS011;1786;52.870;9.578;2023-06-22T02:19:45;5.80;;;4.67;;
3543;SDS011;1786;52.870;9.578;2023-06-22T02:22:13;4.83;;;4.50;;
3543;SDS011;1786;52.870;9.578;2023-06-22T02:24:40;7.07;;;4.70;;
3543;SDS011;1786;52.870;9.578;2023-06-22T02:27:06;4.50;;;4.20;;
3543;SDS011;1786;52.870;9.578;2023-06-22T02:29:33;5.07;;;4.70;;
3543;SDS011;1786;52.870;9.578;2023-06-22T02:32:01;5.00;;;4.60;;
3543;SDS011;1786;52.870;9.578;2023-06-22T02:34:28;4.93;;;4.57;;
3543;SDS011;1786;52.870;9.578;2023-06-22T02:36:54;5.30;;;4.90;;
3543;SDS011;1786;52.870;9.578;2023-06-22T02:39:22;5.23;;;4.83;;
3543;SDS011;1786;52.870;9.578;2023-06-22T02:41:51;5.70;;;5.30;;
3543;SDS011;1786;52.870;9.578;2023-06-22T02:44:19;5.63;;;5.10;;
3543;SDS011;1786;52.870;9.578;2023-06-22T02:46:47;6.43;;;5.90;;
3543;SDS011;1786;52.870;9.578;2023-06-22T02:49:15;5.30;;;5.00;;
3543;SDS011;1786;52.870;9.578;2023-06-22T02:51:44;5.13;;;4.80;;
3543;SDS011;1786;52.870;9.578;2023-06-22T02:54:14;7.63;;;5.70;;
3543;SDS011;1786;52.870;9.578;2023-06-22T02:56:41;5.33;;;4.93;;
3543;SDS011;1786;52.870;9.578;2023-06-22T02:59:10;6.50;;;5.90;;
3543;SDS011;1786;52.870;9.578;2023-06-22T03:01:38;5.60;;;5.20;;
3543;SDS011;1786;52.870;9.578;2023-06-22T03:04:15;5.67;;;5.17;;
3543;SDS011;1786;52.870;9.578;2023-06-22T03:06:42;5.57;;;5.17;;
3543;SDS011;1786;52.870;9.578;2023-06-22T03:09:08;5.60;;;5.20;;
3543;SDS011;1786;52.870;9.578;2023-06-22T03:11:36;5.50;;;5.20;;
3543;SDS011;1786;52.870;9.578;2023-06-22T03:14:03;8.97;;;6.03;;
3543;SDS011;1786;52.870;9.578;2023-06-22T03:16:30;6.10;;;5.50;;
3543;SDS011;1786;52.870;9.578;2023-06-22T03:18:57;6.23;;;5.73;;
3543;SDS011;1786;52.870;9.578;2023-06-22T03:21:25;7.87;;;5.83;;
3543;SDS011;1786;52.870;9.578;2023-06-22T03:23:54;5.70;;;5.20;;
3543;SDS011;1786;52.870;9.578;2023-06-22T03:26:21;7.40;;;5.90;;
3543;SDS011;1786;52.870;9.578;2023-06-22T03:28:50;4.27;;;4.07;;
3543;SDS011;1786;52.870;9.578;2023-06-22T03:31:16;4.87;;;4.50;;
3543;SDS011;1786;52.870;9.578;2023-06-22T03:33:49;5.00;;;4.60;;
3543;SDS011;1786;52.870;9.578;2023-06-22T03:36:16;5.20;;;4.87;;
3543;SDS011;1786;52.870;9.578;2023-06-22T03:38:47;5.93;;;5.33;;
3543;SDS011;1786;52.870;9.578;2023-06-22T03:44:25;6.40;;;5.33;;
3543;SDS011;1786;52.870;9.578;2023-06-22T03:46:51;4.90;;;4.60;;
3543;SDS011;1786;52.870;9.578;2023-06-22T03:49:18;8.63;;;5.17;;
3543;SDS011;1786;52.870;9.578;2023-06-22T03:51:46;5.40;;;5.00;;
3543;SDS011;1786;52.870;9.578;2023-06-22T03:54:12;6.20;;;5.60;;
3543;SDS011;1786;52.870;9.578;2023-06-22T03:56:39;6.60;;;6.10;;
3543;SDS011;1786;52.870;9.578;2023-06-22T03:59:05;5.20;;;4.80;;
3543;SDS011;1786;52.870;9.578;2023-06-22T04:01:32;6.43;;;5.17;;
3543;SDS011;1786;52.870;9.578;2023-06-22T04:03:59;5.40;;;5.00;;
3543;SDS011;1786;52.870;9.578;2023-06-22T04:06:26;7.30;;;5.57;;
3543;SDS011;1786;52.870;9.578;2023-06-22T04:08:52;5.50;;;5.00;;
3543;SDS011;1786;52.870;9.578;2023-06-22T04:11:19;6.20;;;4.83;;
3543;SDS011;1786;52.870;9.578;2023-06-22T04:13:46;5.20;;;4.80;;
3543;SDS011;1786;52.870;9.578;2023-06-22T04:16:12;6.00;;;5.50;;
3543;SDS011;1786;52.870;9.578;2023-06-22T04:18:39;4.50;;;4.30;;
3543;SDS011;1786;52.870;9.578;2023-06-22T04:21:06;5.10;;;4.70;;
3543;SDS011;1786;52.870;9.578;2023-06-22T04:23:33;5.50;;;5.00;;
3543;SDS011;1786;52.870;9.578;2023-06-22T04:25:59;5.90;;;5.40;;
3543;SDS011;1786;52.870;9.578;2023-06-22T04:28:26;5.80;;;5.30;;
3543;SDS011;1786;52.870;9.578;2023-06-22T04:30:53;5.20;;;4.70;;
3543;SDS011;1786;52.870;9.578;2023-06-22T04:33:24;4.47;;;4.20;;
3543;SDS011;1786;52.870;9.578;2023-06-22T04:35:51;5.60;;;5.20;;
3543;SDS011;1786;52.870;9.578;2023-06-22T04:38:17;5.30;;;5.00;;
3543;SDS011;1786;52.870;9.578;2023-06-22T04:40:44;7.50;;;4.23;;
3543;SDS011;1786;52.870;9.578;2023-06-22T04:43:10;4.37;;;4.10;;
3543;SDS011;1786;52.870;9.578;2023-06-22T04:45:37;4.30;;;4.03;;
3543;SDS011;1786;52.870;9.578;2023-06-22T04:48:06;4.60;;;4.20;;
3543;SDS011;1786;52.870;9.578;2023-06-22T04:50:36;4.53;;;4.33;;
3543;SDS011;1786;52.870;9.578;2023-06-22T04:53:05;3.90;;;3.70;;
3543;SDS011;1786;52.870;9.578;2023-06-22T04:55:32;5.17;;;4.60;;
3543;SDS011;1786;52.870;9.578;2023-06-22T04:57:58;4.53;;;4.23;;
3543;SDS011;1786;52.870;9.578;2023-06-22T05:00:31;5.00;;;4.60;;
3543;SDS011;1786;52.870;9.578;2023-06-22T05:02:58;6.07;;;5.40;;
3543;SDS011;1786;52.870;9.578;2023-06-22T05:05:43;4.60;;;4.20;;
3543;SDS011;1786;52.870;9.578;2023-06-22T05:08:10;7.73;;;4.57;;
3543;SDS011;1786;52.870;9.578;2023-06-22T05:10:38;4.87;;;4.47;;
3543;SDS011;1786;52.870;9.578;2023-06-22T05:13:20;4.40;;;4.10;;
3543;SDS011;1786;52.870;9.578;2023-06-22T05:15:48;5.70;;;4.00;;
3543;SDS011;1786;52.870;9.578;2023-06-22T05:18:14;4.83;;;4.30;;
3543;SDS011;1786;52.870;9.578;2023-06-22T05:20:41;4.37;;;4.00;;
3543;SDS011;1786;52.870;9.578;2023-06-22T05:23:08;3.90;;;3.60;;
3543;SDS011;1786;52.870;9.578;2023-06-22T05:25:34;3.83;;;3.60;;
3543;SDS011;1786;52.870;9.578;2023-06-22T05:28:01;3.67;;;3.47;;
3543;SDS011;1786;52.870;9.578;2023-06-22T05:30:37;5.70;;;3.73;;
3543;SDS011;1786;52.870;9.578;2023-06-22T05:33:03;3.73;;;3.20;;
3543;SDS011;1786;52.870;9.578;2023-06-22T05:35:31;5.70;;;4.37;;
3543;SDS011;1786;52.870;9.578;2023-06-22T05:37:57;3.73;;;3.23;;
3543;SDS011;1786;52.870;9.578;2023-06-22T05:40:24;6.90;;;2.97;;
3543;SDS011;1786;52.870;9.578;2023-06-22T05:42:51;3.60;;;3.40;;
3543;SDS011;1786;52.870;9.578;2023-06-22T05:45:18;4.50;;;2.90;;
3543;SDS011;1786;52.870;9.578;2023-06-22T05:47:45;4.60;;;3.60;;
3543;SDS011;1786;52.870;9.578;2023-06-22T05:50:11;2.87;;;2.73;;
3543;SDS011;1786;52.870;9.578;2023-06-22T05:52:39;3.30;;;2.97;;
3543;SDS011;1786;52.870;9.578;2023-06-22T05:55:05;3.23;;;2.93;;
3543;SDS011;1786;52.870;9.578;2023-06-22T05:57:32;2.70;;;2.60;;
3543;SDS011;1786;52.870;9.578;2023-06-22T05:59:59;2.77;;;2.67;;
3543;SDS011;1786;52.870;9.578;2023-06-22T06:02:25;3.93;;;2.90;;
3543;SDS011;1786;52.870;9.578;2023-06-22T06:04:52;3.00;;;2.70;;
3543;SDS011;1786;52.870;9.578;2023-06-22T06:07:19;3.20;;;2.90;;
3543;SDS011;1786;52.870;9.578;2023-06-22T06:09:45;8.63;;;2.60;;
3543;SDS011;1786;52.870;9.578;2023-06-22T06:12:12;2.90;;;2.80;;
3543;SDS011;1786;52.870;9.578;2023-06-22T06:14:39;3.00;;;2.60;;
3543;SDS011;1786;52.870;9.578;2023-06-22T06:17:07;3.07;;;2.87;;
3543;SDS011;1786;52.870;9.578;2023-06-22T06:19:34;2.80;;;2.50;;
3543;SDS011;1786;52.870;9.578;2023-06-22T06:22:00;2.50;;;2.30;;
3543;SDS011;1786;52.870;9.578;2023-06-22T06:24:27;2.40;;;2.20;;
3543;SDS011;1786;52.870;9.578;2023-06-22T06:26:54;3.08;;;2.20;;
3543;SDS011;1786;52.870;9.578;2023-06-22T06:29:21;2.58;;;2.05;;
3543;SDS011;1786;52.870;9.578;2023-06-22T06:31:50;6.28;;;2.40;;
3543;SDS011;1786;52.870;9.578;2023-06-22T06:34:20;2.95;;;2.67;;
3543;SDS011;1786;52.870;9.578;2023-06-22T06:36:46;2.63;;;2.45;;
3543;SDS011;1786;52.870;9.578;2023-06-22T06:39:13;1.98;;;1.88;;
3543;SDS011;1786;52.870;9.578;2023-06-22T06:41:40;2.53;;;2.42;;
3543;SDS011;1786;52.870;9.578;2023-06-22T06:44:13;2.28;;;2.22;;
3543;SDS011;1786;52.870;9.578;2023-06-22T06:46:41;2.88;;;2.67;;
3543;SDS011;1786;52.870;9.578;2023-06-22T06:49:08;3.50;;;2.63;;
3543;SDS011;1786;52.870;9.578;2023-06-22T06:51:35;3.45;;;2.30;;
3543;SDS011;1786;52.870;9.578;2023-06-22T06:54:02;3.20;;;2.10;;
3543;SDS011;1786;52.870;9.578;2023-06-22T06:56:30;7.75;;;2.80;;
3543;SDS011;1786;52.870;9.578;2023-06-22T06:58:59;2.53;;;2.35;;
3543;SDS011;1786;52.870;9.578;2023-06-22T07:01:26;2.42;;;2.20;;
3543;SDS011;1786;52.870;9.578;2023-06-22T07:03:52;2.38;;;2.28;;
3543;SDS011;1786;52.870;9.578;2023-06-22T07:06:20;2.25;;;2.05;;
3543;SDS011;1786;52.870;9.578;2023-06-22T07:08:47;3.42;;;2.65;;
3543;SDS011;1786;52.870;9.578;2023-06-22T07:11:13;2.25;;;2.15;;
3543;SDS011;1786;52.870;9.578;2023-06-22T07:13:40;2.45;;;2.25;;
3543;SDS011;1786;52.870;9.578;2023-06-22T07:16:06;2.63;;;2.42;;
3543;SDS011;1786;52.870;9.578;2023-06-22T07:18:33;3.60;;;2.17;;
3543;SDS011;1786;52.870;9.578;2023-06-22T07:20:59;2.10;;;2.00;;
3543;SDS011;1786;52.870;9.578;2023-06-22T07:23:27;1.88;;;1.88;;
3543;SDS011;1786;52.870;9.578;2023-06-22T07:25:54;4.07;;;2.47;;
3543;SDS011;1786;52.870;9.578;2023-06-22T07:28:20;2.28;;;2.20;;
3543;SDS011;1786;52.870;9.578;2023-06-22T07:30:47;2.15;;;1.60;;
3543;SDS011;1786;52.870;9.578;2023-06-22T07:33:14;2.28;;;2.05;;
3543;SDS011;1786;52.870;9.578;2023-06-22T07:35:41;2.05;;;1.48;;
3543;SDS011;1786;52.870;9.578;2023-06-22T07:38:07;2.15;;;2.05;;
3543;SDS011;1786;52.870;9.578;2023-06-22T07:40:36;3.90;;;1.90;;
3543;SDS011;1786;52.870;9.578;2023-06-22T07:43:02;5.35;;;2.10;;
3543;SDS011;1786;52.870;9.578;2023-06-22T07:45:29;2.53;;;1.98;;
3543;SDS011;1786;52.870;9.578;2023-06-22T07:47:56;2.20;;;2.10;;
3543;SDS011;1786;52.870;9.578;2023-06-22T07:50:23;2.03;;;1.92;;
3543;SDS011;1786;52.870;9.578;2023-06-22T07:52:50;2.42;;;2.17;;
3543;SDS011;1786;52.870;9.578;2023-06-22T07:55:19;1.80;;;1.63;;
3543;SDS011;1786;52.870;9.578;2023-06-22T07:57:47;2.20;;;2.10;;
3543;SDS011;1786;52.870;9.578;2023-06-22T08:00:15;10.25;;;2.00;;
3543;SDS011;1786;52.870;9.578;2023-06-22T08:02:42;2.20;;;1.83;;
3543;SDS011;1786;52.870;9.578;2023-06-22T08:05:11;1.85;;;1.75;;
3543;SDS011;1786;52.870;9.578;2023-06-22T08:07:48;2.40;;;2.30;;
3543;SDS011;1786;52.870;9.578;2023-06-22T08:10:15;1.98;;;1.88;;
3543;SDS011;1786;52.870;9.578;2023-06-22T08:12:42;3.47;;;2.28;;
3543;SDS011;1786;52.870;9.578;2023-06-22T08:15:09;1.92;;;1.83;;
3543;SDS011;1786;52.870;9.578;2023-06-22T08:17:37;2.20;;;2.10;;
3543;SDS011;1786;52.870;9.578;2023-06-22T08:20:05;2.55;;;2.35;;
3543;SDS011;1786;52.870;9.578;2023-06-22T08:22:39;1.95;;;1.95;;
3543;SDS011;1786;52.870;9.578;2023-06-22T08:25:10;2.70;;;2.60;;
3543;SDS011;1786;52.870;9.578;2023-06-22T08:27:37;2.72;;;2.53;;
3543;SDS011;1786;52.870;9.578;2023-06-22T08:30:05;2.60;;;2.50;;
3543;SDS011;1786;52.870;9.578;2023-06-22T08:32:33;3.97;;;3.00;;
3543;SDS011;1786;52.870;9.578;2023-06-22T08:35:00;3.13;;;3.03;;
3543;SDS011;1786;52.870;9.578;2023-06-22T08:37:28;2.70;;;2.60;;
3543;SDS011;1786;52.870;9.578;2023-06-22T08:40:02;2.85;;;2.65;;
3543;SDS011;1786;52.870;9.578;2023-06-22T08:42:42;3.38;;;3.17;;
3543;SDS011;1786;52.870;9.578;2023-06-22T08:45:09;6.70;;;2.88;;
3543;SDS011;1786;52.870;9.578;2023-06-22T08:47:36;3.63;;;3.35;;
3543;SDS011;1786;52.870;9.578;2023-06-22T08:50:03;3.65;;;3.17;;
3543;SDS011;1786;52.870;9.578;2023-06-22T08:52:32;3.50;;;3.20;;
3543;SDS011;1786;52.870;9.578;2023-06-22T08:54:58;3.42;;;3.33;;
3543;SDS011;1786;52.870;9.578;2023-06-22T08:57:25;3.60;;;3.30;;
3543;SDS011;1786;52.870;9.578;2023-06-22T08:59:52;3.63;;;3.50;;
3543;SDS011;1786;52.870;9.578;2023-06-22T09:02:19;3.70;;;3.50;;
3543;SDS011;1786;52.870;9.578;2023-06-22T09:04:46;3.55;;;3.30;;
3543;SDS011;1786;52.870;9.578;2023-06-22T09:07:13;3.70;;;3.47;;
3543;SDS011;1786;52.870;9.578;2023-06-22T09:09:39;3.70;;;3.58;;
3543;SDS011;1786;52.870;9.578;2023-06-22T09:12:06;4.47;;;3.30;;
3543;SDS011;1786;52.870;9.578;2023-06-22T09:14:34;39.78;;;3.97;;
3543;SDS011;1786;52.870;9.578;2023-06-22T09:17:00;3.92;;;3.63;;
3543;SDS011;1786;52.870;9.578;2023-06-22T09:19:27;4.60;;;3.40;;
3543;SDS011;1786;52.870;9.578;2023-06-22T09:21:54;4.53;;;4.30;;
3543;SDS011;1786;52.870;9.578;2023-06-22T09:24:20;4.50;;;4.20;;
3543;SDS011;1786;52.870;9.578;2023-06-22T09:26:47;5.10;;;4.70;;
3543;SDS011;1786;52.870;9.578;2023-06-22T09:29:13;4.78;;;4.50;;
3543;SDS011;1786;52.870;9.578;2023-06-22T09:31:40;5.63;;;4.35;;
3543;SDS011;1786;52.870;9.578;2023-06-22T09:34:08;4.18;;;3.97;;
3543;SDS011;1786;52.870;9.578;2023-06-22T09:36:34;4.18;;;3.97;;
3543;SDS011;1786;52.870;9.578;2023-06-22T09:39:01;4.40;;;4.10;;
3543;SDS011;1786;52.870;9.578;2023-06-22T09:41:32;4.18;;;3.92;;
3543;SDS011;1786;52.870;9.578;2023-06-22T09:43:58;4.40;;;4.20;;
3543;SDS011;1786;52.870;9.578;2023-06-22T09:46:25;4.40;;;4.10;;
3543;SDS011;1786;52.870;9.578;2023-06-22T09:48:52;4.38;;;4.07;;
3543;SDS011;1786;52.870;9.578;2023-06-22T09:51:18;4.50;;;4.30;;
3543;SDS011;1786;52.870;9.578;2023-06-22T09:53:47;7.60;;;4.72;;
3543;SDS011;1786;52.870;9.578;2023-06-22T09:56:14;4.85;;;4.45;;
3543;SDS011;1786;52.870;9.578;2023-06-22T09:58:41;5.50;;;5.00;;
3543;SDS011;1786;52.870;9.578;2023-06-22T10:01:08;5.13;;;4.82;;
3543;SDS011;1786;52.870;9.578;2023-06-22T10:03:36;5.32;;;4.50;;
3543;SDS011;1786;52.870;9.578;2023-06-22T10:06:03;5.00;;;4.70;;
3543;SDS011;1786;52.870;9.578;2023-06-22T10:08:30;5.18;;;4.88;;
3543;SDS011;1786;52.870;9.578;2023-06-22T10:10:57;8.07;;;5.97;;
3543;SDS011;1786;52.870;9.578;2023-06-22T10:13:23;5.18;;;4.70;;
3543;SDS011;1786;52.870;9.578;2023-06-22T10:15:50;5.10;;;4.85;;
3543;SDS011;1786;52.870;9.578;2023-06-22T10:18:18;5.20;;;4.80;;
3543;SDS011;1786;52.870;9.578;2023-06-22T10:20:47;5.82;;;5.22;;
3543;SDS011;1786;52.870;9.578;2023-06-22T10:23:15;6.20;;;5.80;;
3543;SDS011;1786;52.870;9.578;2023-06-22T10:25:41;5.70;;;5.40;;
3543;SDS011;1786;52.870;9.578;2023-06-22T10:28:08;6.35;;;5.85;;
3543;SDS011;1786;52.870;9.578;2023-06-22T10:30:34;7.88;;;5.35;;
3543;SDS011;1786;52.870;9.578;2023-06-22T10:33:01;5.43;;;5.03;;
3543;SDS011;1786;52.870;9.578;2023-06-22T10:35:28;6.07;;;5.53;;
3543;SDS011;1786;52.870;9.578;2023-06-22T10:37:55;7.85;;;5.70;;
3543;SDS011;1786;52.870;9.578;2023-06-22T10:40:22;6.22;;;5.72;;
3543;SDS011;1786;52.870;9.578;2023-06-22T10:42:49;6.43;;;6.03;;
3543;SDS011;1786;52.870;9.578;2023-06-22T10:45:16;7.57;;;6.53;;
3543;SDS011;1786;52.870;9.578;2023-06-22T10:47:43;6.43;;;6.05;;
3543;SDS011;1786;52.870;9.578;2023-06-22T10:50:10;6.72;;;6.22;;
3543;SDS011;1786;52.870;9.578;2023-06-22T10:52:38;6.75;;;6.15;;
3543;SDS011;1786;52.870;9.578;2023-06-22T10:55:05;6.50;;;6.00;;
3543;SDS011;1786;52.870;9.578;2023-06-22T10:57:32;9.20;;;6.30;;
3543;SDS011;1786;52.870;9.578;2023-06-22T10:59:58;7.53;;;6.72;;
3543;SDS011;1786;52.870;9.578;2023-06-22T11:02:25;10.85;;;6.97;;
3543;SDS011;1786;52.870;9.578;2023-06-22T11:04:55;8.20;;;7.47;;
3543;SDS011;1786;52.870;9.578;2023-06-22T11:07:21;7.72;;;7.13;;
3543;SDS011;1786;52.870;9.578;2023-06-22T11:09:48;7.13;;;6.53;;
3543;SDS011;1786;52.870;9.578;2023-06-22T11:12:15;6.88;;;6.47;;
3543;SDS011;1786;52.870;9.578;2023-06-22T11:14:41;8.90;;;7.13;;
3543;SDS011;1786;52.870;9.578;2023-06-22T11:17:08;7.00;;;6.50;;
3543;SDS011;1786;52.870;9.578;2023-06-22T11:19:34;8.60;;;6.60;;
3543;SDS011;1786;52.870;9.578;2023-06-22T11:22:01;8.40;;;6.70;;
3543;SDS011;1786;52.870;9.578;2023-06-22T11:24:28;7.78;;;7.18;;
3543;SDS011;1786;52.870;9.578;2023-06-22T11:26:55;7.20;;;6.68;;
3543;SDS011;1786;52.870;9.578;2023-06-22T11:29:24;7.50;;;6.75;;
3543;SDS011;1786;52.870;9.578;2023-06-22T11:32:02;7.50;;;7.00;;
3543;SDS011;1786;52.870;9.578;2023-06-22T11:34:29;6.43;;;6.03;;
3543;SDS011;1786;52.870;9.578;2023-06-22T11:36:56;9.50;;;6.68;;
3543;SDS011;1786;52.870;9.578;2023-06-22T11:39:23;7.55;;;6.93;;
3543;SDS011;1786;52.870;9.578;2023-06-22T11:42:06;7.10;;;6.70;;
3543;SDS011;1786;52.870;9.578;2023-06-22T11:44:34;8.38;;;7.57;;
3543;SDS011;1786;52.870;9.578;2023-06-22T11:47:01;8.02;;;7.25;;
3543;SDS011;1786;52.870;9.578;2023-06-22T11:49:30;8.13;;;7.45;;
3543;SDS011;1786;52.870;9.578;2023-06-22T11:51:58;8.38;;;7.40;;
3543;SDS011;1786;52.870;9.578;2023-06-22T11:54:25;7.90;;;7.40;;
3543;SDS011;1786;52.870;9.578;2023-06-22T11:56:52;7.60;;;7.05;;
3543;SDS011;1786;52.870;9.578;2023-06-22T11:59:18;7.43;;;6.93;;
3543;SDS011;1786;52.870;9.578;2023-06-22T12:01:45;6.90;;;6.40;;
3543;SDS011;1786;52.870;9.578;2023-06-22T12:04:12;6.90;;;6.30;;
3543;SDS011;1786;52.870;9.578;2023-06-22T12:06:39;7.22;;;6.72;;
3543;SDS011;1786;52.870;9.578;2023-06-22T12:09:08;6.80;;;6.30;;
3543;SDS011;1786;52.870;9.578;2023-06-22T12:11:35;8.05;;;7.28;;
3543;SDS011;1786;52.870;9.578;2023-06-22T12:14:01;6.97;;;6.50;;
3543;SDS011;1786;52.870;9.578;2023-06-22T12:16:29;8.02;;;7.47;;
3543;SDS011;1786;52.870;9.578;2023-06-22T12:18:55;9.63;;;7.72;;
3543;SDS011;1786;52.870;9.578;2023-06-22T12:21:22;8.07;;;7.47;;
3543;SDS011;1786;52.870;9.578;2023-06-22T12:23:49;7.05;;;6.40;;
3543;SDS011;1786;52.870;9.578;2023-06-22T12:26:16;7.82;;;6.93;;
3543;SDS011;1786;52.870;9.578;2023-06-22T12:28:42;10.35;;;7.20;;
3543;SDS011;1786;52.870;9.578;2023-06-22T12:31:09;7.63;;;6.93;;
3543;SDS011;1786;52.870;9.578;2023-06-22T12:33:35;8.00;;;7.40;;
3543;SDS011;1786;52.870;9.578;2023-06-22T12:36:02;10.27;;;7.63;;
3543;SDS011;1786;52.870;9.578;2023-06-22T12:38:31;7.93;;;7.22;;
3543;SDS011;1786;52.870;9.578;2023-06-22T12:40:58;7.30;;;6.80;;
3543;SDS011;1786;52.870;9.578;2023-06-22T12:43:24;7.88;;;7.28;;
3543;SDS011;1786;52.870;9.578;2023-06-22T12:45:51;14.40;;;6.93;;
3543;SDS011;1786;52.870;9.578;2023-06-22T12:48:19;7.45;;;6.85;;
3543;SDS011;1786;52.870;9.578;2023-06-22T12:50:46;7.35;;;6.82;;
3543;SDS011;1786;52.870;9.578;2023-06-22T12:53:14;8.65;;;6.88;;
3543;SDS011;1786;52.870;9.578;2023-06-22T12:55:40;8.57;;;7.57;;
3543;SDS011;1786;52.870;9.578;2023-06-22T12:58:07;7.82;;;7.15;;
3543;SDS011;1786;52.870;9.578;2023-06-22T13:00:34;8.18;;;7.60;;
3543;SDS011;1786;52.870;9.578;2023-06-22T13:03:01;8.30;;;7.53;;
3543;SDS011;1786;52.870;9.578;2023-06-22T13:05:27;9.93;;;7.43;;
3543;SDS011;1786;52.870;9.578;2023-06-22T13:07:54;8.50;;;7.87;;
3543;SDS011;1786;52.870;9.578;2023-06-22T13:10:21;8.00;;;7.20;;
3543;SDS011;1786;52.870;9.578;2023-06-22T13:12:48;7.70;;;7.03;;
3543;SDS011;1786;52.870;9.578;2023-06-22T13:15:14;8.50;;;7.70;;
3543;SDS011;1786;52.870;9.578;2023-06-22T13:17:41;7.57;;;6.90;;
3543;SDS011;1786;52.870;9.578;2023-06-22T13:20:08;7.70;;;7.10;;
3543;SDS011;1786;52.870;9.578;2023-06-22T13:22:36;7.83;;;7.33;;
3543;SDS011;1786;52.870;9.578;2023-06-22T13:25:11;6.90;;;6.30;;
3543;SDS011;1786;52.870;9.578;2023-06-22T13:27:39;6.90;;;6.30;;
3543;SDS011;1786;52.870;9.578;2023-06-22T13:30:07;6.87;;;6.30;;
3543;SDS011;1786;52.870;9.578;2023-06-22T13:32:39;6.93;;;6.33;;
3543;SDS011;1786;52.870;9.578;2023-06-22T13:35:11;7.03;;;6.47;;
3543;SDS011;1786;52.870;9.578;2023-06-22T13:37:38;6.60;;;6.03;;
3543;SDS011;1786;52.870;9.578;2023-06-22T13:40:06;5.70;;;5.23;;
3543;SDS011;1786;52.870;9.578;2023-06-22T13:42:33;6.80;;;6.30;;
3543;SDS011;1786;52.870;9.578;2023-06-22T13:45:00;6.73;;;6.13;;
3543;SDS011;1786;52.870;9.578;2023-06-22T13:47:29;6.53;;;5.93;;
3543;SDS011;1786;52.870;9.578;2023-06-22T13:49:57;6.53;;;6.00;;
3543;SDS011;1786;52.870;9.578;2023-06-22T13:52:24;6.37;;;5.73;;
3543;SDS011;1786;52.870;9.578;2023-06-22T13:54:51;6.37;;;5.77;;
3543;SDS011;1786;52.870;9.578;2023-06-22T13:57:18;6.87;;;6.20;;
3543;SDS011;1786;52.870;9.578;2023-06-22T13:59:45;6.57;;;6.10;;
3543;SDS011;1786;52.870;9.578;2023-06-22T14:02:11;7.43;;;5.80;;
3543;SDS011;1786;52.870;9.578;2023-06-22T14:04:38;7.97;;;7.27;;
3543;SDS011;1786;52.870;9.578;2023-06-22T14:07:05;7.20;;;6.37;;
3543;SDS011;1786;52.870;9.578;2023-06-22T14:09:32;6.83;;;6.33;;
3543;SDS011;1786;52.870;9.578;2023-06-22T14:12:02;7.20;;;6.60;;
3543;SDS011;1786;52.870;9.578;2023-06-22T14:14:31;6.90;;;6.10;;
3543;SDS011;1786;52.870;9.578;2023-06-22T14:16:59;5.90;;;5.60;;
3543;SDS011;1786;52.870;9.578;2023-06-22T14:19:26;7.63;;;6.37;;
3543;SDS011;1786;52.870;9.578;2023-06-22T14:21:54;10.10;;;7.07;;
3543;SDS011;1786;52.870;9.578;2023-06-22T14:24:20;6.20;;;5.80;;
3543;SDS011;1786;52.870;9.578;2023-06-22T14:26:51;6.17;;;5.80;;
3543;SDS011;1786;52.870;9.578;2023-06-22T14:29:17;7.10;;;6.50;;
3543;SDS011;1786;52.870;9.578;2023-06-22T14:31:45;7.17;;;6.47;;
3543;SDS011;1786;52.870;9.578;2023-06-22T14:34:13;7.30;;;6.60;;
3543;SDS011;1786;52.870;9.578;2023-06-22T14:36:40;13.60;;;8.00;;
3543;SDS011;1786;52.870;9.578;2023-06-22T14:39:08;8.20;;;7.50;;
3543;SDS011;1786;52.870;9.578;2023-06-22T14:41:35;8.90;;;8.00;;
3543;SDS011;1786;52.870;9.578;2023-06-22T14:44:02;8.40;;;7.60;;
3543;SDS011;1786;52.870;9.578;2023-06-22T14:46:29;9.50;;;8.30;;
3543;SDS011;1786;52.870;9.578;2023-06-22T14:48:55;9.30;;;8.50;;
3543;SDS011;1786;52.870;9.578;2023-06-22T14:51:22;10.57;;;7.77;;
3543;SDS011;1786;52.870;9.578;2023-06-22T14:53:49;9.80;;;8.30;;
3543;SDS011;1786;52.870;9.578;2023-06-22T14:56:16;11.70;;;8.77;;
3543;SDS011;1786;52.870;9.578;2023-06-22T14:58:43;8.90;;;8.20;;
3543;SDS011;1786;52.870;9.578;2023-06-22T15:01:12;12.20;;;8.97;;
3543;SDS011;1786;52.870;9.578;2023-06-22T15:03:39;10.17;;;9.10;;
3543;SDS011;1786;52.870;9.578;2023-06-22T15:06:06;10.43;;;9.33;;
3543;SDS011;1786;52.870;9.578;2023-06-22T15:08:34;9.77;;;8.27;;
3543;SDS011;1786;52.870;9.578;2023-06-22T15:11:03;9.57;;;8.67;;
3543;SDS011;1786;52.870;9.578;2023-06-22T15:13:30;9.53;;;8.63;;
3543;SDS011;1786;52.870;9.578;2023-06-22T15:16:00;11.37;;;10.27;;
3543;SDS011;1786;52.870;9.578;2023-06-22T15:18:29;14.40;;;9.30;;
3543;SDS011;1786;52.870;9.578;2023-06-22T15:20:56;10.33;;;9.40;;
3543;SDS011;1786;52.870;9.578;2023-06-22T15:23:22;10.70;;;9.60;;
3543;SDS011;1786;52.870;9.578;2023-06-22T15:25:49;11.97;;;10.83;;
3543;SDS011;1786;52.870;9.578;2023-06-22T15:28:16;12.90;;;10.67;;